sensor_id;sensor_type;location;lat;lon;timestamp;P1;durP1;ratioP1;P2;durP2;ratioP2
58966;SDS011;44744;51.894;5.080;2024-03-06T00:01:31;28.60;;;21.20;;
58966;SDS011;44744;51.894;5.080;2024-03-06T00:06:32;27.10;;;20.10;;
58966;SDS011;44744;51.894;5.080;2024-03-06T00:11:33;29.60;;;21.40;;
58966;SDS011;44744;51.894;5.080;2024-03-06T00:16:36;27.20;;;20.60;;
58966;SDS011;44744;51.894;5.080;2024-03-06T00:21:36;31.10;;;21.90;;
58966;SDS011;44744;51.894;5.080;2024-03-06T00:26:45;31.30;;;22.30;;
58966;SDS011;44744;51.894;5.080;2024-03-06T00:31:47;29.50;;;21.40;;
58966;SDS011;44744;51.894;5.080;2024-03-06T00:36:47;29.30;;;21.60;;
58966;SDS011;44744;51.894;5.080;2024-03-06T00:41:48;27.10;;;20.50;;
58966;SDS011;44744;51.894;5.080;2024-03-06T00:46:48;27.60;;;20.80;;
58966;SDS011;44744;51.894;5.080;2024-03-06T00:51:49;31.50;;;21.10;;
58966;SDS011;44744;51.894;5.080;2024-03-06T00:56:49;29.00;;;20.80;;
58966;SDS011;44744;51.894;5.080;2024-03-06T01:01:50;33.10;;;22.30;;
58966;SDS011;44744;51.894;5.080;2024-03-06T01:06:50;34.60;;;21.70;;
58966;SDS011;44744;51.894;5.080;2024-03-06T01:11:51;29.70;;;22.80;;
58966;SDS011;44744;51.894;5.080;2024-03-06T01:16:52;27.80;;;22.20;;
58966;SDS011;44744;51.894;5.080;2024-03-06T01:21:52;30.60;;;22.50;;
58966;SDS011;44744;51.894;5.080;2024-03-06T01:26:53;34.40;;;23.10;;
58966;SDS011;44744;51.894;5.080;2024-03-06T01:31:53;27.50;;;22.10;;
58966;SDS011;44744;51.894;5.080;2024-03-06T01:36:54;30.60;;;21.80;;
58966;SDS011;44744;51.894;5.080;2024-03-06T01:41:55;25.30;;;18.50;;
58966;SDS011;44744;51.894;5.080;2024-03-06T01:46:56;28.60;;;20.20;;
58966;SDS011;44744;51.894;5.080;2024-03-06T01:51:57;26.50;;;20.40;;
58966;SDS011;44744;51.894;5.080;2024-03-06T01:56:59;26.70;;;20.20;;
58966;SDS011;44744;51.894;5.080;2024-03-06T02:02:02;30.10;;;20.60;;
58966;SDS011;44744;51.894;5.080;2024-03-06T02:07:03;28.10;;;20.30;;
58966;SDS011;44744;51.894;5.080;2024-03-06T02:12:10;30.00;;;21.20;;
58966;SDS011;44744;51.894;5.080;2024-03-06T02:17:11;27.20;;;20.40;;
58966;SDS011;44744;51.894;5.080;2024-03-06T02:22:11;29.40;;;22.30;;
58966;SDS011;44744;51.894;5.080;2024-03-06T02:27:12;32.70;;;21.90;;
58966;SDS011;44744;51.894;5.080;2024-03-06T02:32:12;31.40;;;22.30;;
58966;SDS011;44744;51.894;5.080;2024-03-06T02:37:18;27.90;;;21.40;;
58966;SDS011;44744;51.894;5.080;2024-03-06T02:42:18;29.60;;;21.10;;
58966;SDS011;44744;51.894;5.080;2024-03-06T02:47:19;28.70;;;22.10;;
58966;SDS011;44744;51.894;5.080;2024-03-06T02:52:19;30.90;;;21.30;;
58966;SDS011;44744;51.894;5.080;2024-03-06T02:57:20;29.50;;;21.70;;
58966;SDS011;44744;51.894;5.080;2024-03-06T03:02:20;29.30;;;22.80;;
58966;SDS011;44744;51.894;5.080;2024-03-06T03:07:21;30.90;;;23.30;;
58966;SDS011;44744;51.894;5.080;2024-03-06T03:12:23;31.80;;;21.70;;
58966;SDS011;44744;51.894;5.080;2024-03-06T03:17:24;29.70;;;20.90;;
58966;SDS011;44744;51.894;5.080;2024-03-06T03:22:24;29.00;;;22.10;;
58966;SDS011;44744;51.894;5.080;2024-03-06T03:27:25;29.80;;;22.10;;
58966;SDS011;44744;51.894;5.080;2024-03-06T03:32:25;28.40;;;22.20;;
58966;SDS011;44744;51.894;5.080;2024-03-06T03:37:26;30.70;;;21.00;;
58966;SDS011;44744;51.894;5.080;2024-03-06T03:42:27;29.40;;;22.50;;
58966;SDS011;44744;51.894;5.080;2024-03-06T03:47:27;30.50;;;21.70;;
58966;SDS011;44744;51.894;5.080;2024-03-06T03:52:28;32.00;;;22.20;;
58966;SDS011;44744;51.894;5.080;2024-03-06T03:57:29;31.50;;;21.90;;
58966;SDS011;44744;51.894;5.080;2024-03-06T04:02:32;30.70;;;22.70;;
58966;SDS011;44744;51.894;5.080;2024-03-06T04:07:33;31.20;;;22.80;;
58966;SDS011;44744;51.894;5.080;2024-03-06T04:12:34;29.60;;;23.10;;
58966;SDS011;44744;51.894;5.080;2024-03-06T04:17:34;29.30;;;22.30;;
58966;SDS011;44744;51.894;5.080;2024-03-06T04:22:41;31.60;;;22.40;;
58966;SDS011;44744;51.894;5.080;2024-03-06T04:27:41;28.20;;;21.90;;
58966;SDS011;44744;51.894;5.080;2024-03-06T04:32:41;28.40;;;22.00;;
58966;SDS011;44744;51.894;5.080;2024-03-06T04:37:42;29.80;;;23.40;;
58966;SDS011;44744;51.894;5.080;2024-03-06T04:42:47;29.10;;;22.40;;
58966;SDS011;44744;51.894;5.080;2024-03-06T04:47:47;28.40;;;21.80;;
58966;SDS011;44744;51.894;5.080;2024-03-06T04:52:47;32.50;;;22.80;;
58966;SDS011;44744;51.894;5.080;2024-03-06T04:57:48;30.00;;;21.80;;
58966;SDS011;44744;51.894;5.080;2024-03-06T05:02:49;26.50;;;21.00;;
58966;SDS011;44744;51.894;5.080;2024-03-06T05:07:50;24.70;;;20.40;;
58966;SDS011;44744;51.894;5.080;2024-03-06T05:12:51;23.00;;;17.10;;
58966;SDS011;44744;51.894;5.080;2024-03-06T05:17:54;19.20;;;15.90;;
58966;SDS011;44744;51.894;5.080;2024-03-06T05:22:56;22.50;;;15.70;;
58966;SDS011;44744;51.894;5.080;2024-03-06T05:27:56;18.60;;;15.40;;
58966;SDS011;44744;51.894;5.080;2024-03-06T05:32:57;18.90;;;15.30;;
58966;SDS011;44744;51.894;5.080;2024-03-06T05:37:58;27.00;;;15.90;;
58966;SDS011;44744;51.894;5.080;2024-03-06T05:42:58;20.00;;;16.00;;
58966;SDS011;44744;51.894;5.080;2024-03-06T05:48:02;25.70;;;17.60;;
58966;SDS011;44744;51.894;5.080;2024-03-06T05:53:41;22.90;;;19.00;;
58966;SDS011;44744;51.894;5.080;2024-03-06T05:58:43;33.50;;;22.30;;
58966;SDS011;44744;51.894;5.080;2024-03-06T06:03:49;24.10;;;17.90;;
58966;SDS011;44744;51.894;5.080;2024-03-06T06:08:53;22.60;;;17.80;;
58966;SDS011;44744;51.894;5.080;2024-03-06T06:13:54;21.30;;;17.80;;
58966;SDS011;44744;51.894;5.080;2024-03-06T06:18:55;20.20;;;18.00;;
58966;SDS011;44744;51.894;5.080;2024-03-06T06:23:56;20.40;;;17.20;;
58966;SDS011;44744;51.894;5.080;2024-03-06T07:55:03;65.20;;;36.30;;
58966;SDS011;44744;51.894;5.080;2024-03-06T08:00:05;92.40;;;42.30;;
58966;SDS011;44744;51.894;5.080;2024-03-06T08:05:14;108.80;;;49.80;;
58966;SDS011;44744;51.894;5.080;2024-03-06T08:10:18;77.30;;;45.10;;
58966;SDS011;44744;51.894;5.080;2024-03-06T08:15:20;113.50;;;53.70;;
58966;SDS011;44744;51.894;5.080;2024-03-06T08:20:21;104.70;;;53.90;;
58966;SDS011;44744;51.894;5.080;2024-03-06T08:25:22;81.60;;;48.90;;
58966;SDS011;44744;51.894;5.080;2024-03-06T08:30:22;67.20;;;47.00;;
58966;SDS011;44744;51.894;5.080;2024-03-06T08:35:23;95.40;;;54.00;;
58966;SDS011;44744;51.894;5.080;2024-03-06T08:40:24;85.00;;;50.30;;
58966;SDS011;44744;51.894;5.080;2024-03-06T08:45:26;80.20;;;43.60;;
58966;SDS011;44744;51.894;5.080;2024-03-06T08:50:26;98.60;;;49.90;;
58966;SDS011;44744;51.894;5.080;2024-03-06T08:55:27;80.80;;;39.70;;
58966;SDS011;44744;51.894;5.080;2024-03-06T09:00:28;66.90;;;42.00;;
58966;SDS011;44744;51.894;5.080;2024-03-06T09:05:28;69.90;;;44.00;;
58966;SDS011;44744;51.894;5.080;2024-03-06T09:10:29;108.50;;;54.40;;
58966;SDS011;44744;51.894;5.080;2024-03-06T09:15:29;77.10;;;45.70;;
58966;SDS011;44744;51.894;5.080;2024-03-06T09:20:33;99.10;;;52.70;;
58966;SDS011;44744;51.894;5.080;2024-03-06T09:36:45;62.00;;;37.60;;
58966;SDS011;44744;51.894;5.080;2024-03-06T09:41:46;51.90;;;35.80;;
58966;SDS011;44744;51.894;5.080;2024-03-06T09:46:48;49.20;;;35.10;;
58966;SDS011;44744;51.894;5.080;2024-03-06T09:51:49;47.40;;;34.30;;
58966;SDS011;44744;51.894;5.080;2024-03-06T09:56:55;43.90;;;32.90;;
58966;SDS011;44744;51.894;5.080;2024-03-06T10:01:57;45.20;;;33.00;;
58966;SDS011;44744;51.894;5.080;2024-03-06T10:07:02;50.40;;;35.90;;
58966;SDS011;44744;51.894;5.080;2024-03-06T10:12:04;57.50;;;37.40;;
58966;SDS011;44744;51.894;5.080;2024-03-06T10:17:05;56.60;;;39.00;;
58966;SDS011;44744;51.894;5.080;2024-03-06T10:22:06;49.90;;;37.60;;
58966;SDS011;44744;51.894;5.080;2024-03-06T10:27:08;56.60;;;38.10;;
58966;SDS011;44744;51.894;5.080;2024-03-06T10:32:16;53.30;;;38.40;;
58966;SDS011;44744;51.894;5.080;2024-03-06T10:37:19;53.00;;;39.00;;
58966;SDS011;44744;51.894;5.080;2024-03-06T10:42:21;51.20;;;38.00;;
58966;SDS011;44744;51.894;5.080;2024-03-06T10:47:26;55.80;;;37.80;;
58966;SDS011;44744;51.894;5.080;2024-03-06T10:52:31;52.80;;;37.80;;
58966;SDS011;44744;51.894;5.080;2024-03-06T10:57:34;54.10;;;38.40;;
58966;SDS011;44744;51.894;5.080;2024-03-06T11:02:36;51.40;;;37.30;;
58966;SDS011;44744;51.894;5.080;2024-03-06T11:12:41;40.10;;;29.90;;
58966;SDS011;44744;51.894;5.080;2024-03-06T11:28:09;36.00;;;28.10;;
58966;SDS011;44744;51.894;5.080;2024-03-06T11:33:12;37.40;;;28.50;;
58966;SDS011;44744;51.894;5.080;2024-03-06T11:38:17;35.60;;;25.90;;
58966;SDS011;44744;51.894;5.080;2024-03-06T11:43:24;32.60;;;25.80;;
58966;SDS011;44744;51.894;5.080;2024-03-06T11:53:52;32.30;;;26.60;;
58966;SDS011;44744;51.894;5.080;2024-03-06T11:58:54;34.70;;;25.20;;
58966;SDS011;44744;51.894;5.080;2024-03-06T12:03:54;28.70;;;23.00;;
58966;SDS011;44744;51.894;5.080;2024-03-06T12:08:55;27.30;;;20.90;;
58966;SDS011;44744;51.894;5.080;2024-03-06T12:13:56;25.90;;;18.10;;
58966;SDS011;44744;51.894;5.080;2024-03-06T12:18:57;18.90;;;12.50;;
58966;SDS011;44744;51.894;5.080;2024-03-06T12:24:02;26.10;;;19.80;;
58966;SDS011;44744;51.894;5.080;2024-03-06T12:29:08;20.70;;;15.80;;
58966;SDS011;44744;51.894;5.080;2024-03-06T12:34:14;19.20;;;15.90;;
58966;SDS011;44744;51.894;5.080;2024-03-06T12:39:18;18.80;;;14.60;;
58966;SDS011;44744;51.894;5.080;2024-03-06T12:44:38;19.60;;;14.20;;
58966;SDS011;44744;51.894;5.080;2024-03-06T12:49:40;19.10;;;14.20;;
58966;SDS011;44744;51.894;5.080;2024-03-06T12:54:41;15.20;;;12.70;;
58966;SDS011;44744;51.894;5.080;2024-03-06T12:59:41;16.90;;;12.90;;
58966;SDS011;44744;51.894;5.080;2024-03-06T13:04:44;17.90;;;13.00;;
58966;SDS011;44744;51.894;5.080;2024-03-06T13:09:49;15.60;;;12.60;;
58966;SDS011;44744;51.894;5.080;2024-03-06T13:14:50;15.50;;;11.90;;
58966;SDS011;44744;51.894;5.080;2024-03-06T13:19:51;13.50;;;11.50;;
58966;SDS011;44744;51.894;5.080;2024-03-06T13:25:03;15.80;;;11.50;;
58966;SDS011;44744;51.894;5.080;2024-03-06T13:30:07;13.40;;;11.90;;
58966;SDS011;44744;51.894;5.080;2024-03-06T13:35:10;15.80;;;11.40;;
58966;SDS011;44744;51.894;5.080;2024-03-06T13:40:13;15.30;;;11.40;;
58966;SDS011;44744;51.894;5.080;2024-03-06T13:45:13;15.20;;;11.40;;
58966;SDS011;44744;51.894;5.080;2024-03-06T13:50:15;11.80;;;9.90;;
58966;SDS011;44744;51.894;5.080;2024-03-06T13:55:16;14.60;;;11.70;;
58966;SDS011;44744;51.894;5.080;2024-03-06T14:00:17;13.90;;;11.50;;
58966;SDS011;44744;51.894;5.080;2024-03-06T14:05:18;13.20;;;10.90;;
58966;SDS011;44744;51.894;5.080;2024-03-06T14:10:24;13.00;;;10.10;;
58966;SDS011;44744;51.894;5.080;2024-03-06T14:15:26;13.40;;;10.20;;
58966;SDS011;44744;51.894;5.080;2024-03-06T14:20:29;12.80;;;10.90;;
58966;SDS011;44744;51.894;5.080;2024-03-06T14:25:30;13.80;;;10.80;;
58966;SDS011;44744;51.894;5.080;2024-03-06T14:30:35;15.90;;;11.00;;
58966;SDS011;44744;51.894;5.080;2024-03-06T14:35:37;15.00;;;12.70;;
58966;SDS011;44744;51.894;5.080;2024-03-06T14:40:38;15.50;;;13.00;;
58966;SDS011;44744;51.894;5.080;2024-03-06T14:45:41;13.90;;;12.00;;
58966;SDS011;44744;51.894;5.080;2024-03-06T14:50:42;16.20;;;12.40;;
58966;SDS011;44744;51.894;5.080;2024-03-06T14:55:43;13.90;;;11.90;;
58966;SDS011;44744;51.894;5.080;2024-03-06T15:00:44;13.40;;;11.50;;
58966;SDS011;44744;51.894;5.080;2024-03-06T15:05:44;13.80;;;11.70;;
58966;SDS011;44744;51.894;5.080;2024-03-06T15:10:45;15.20;;;13.10;;
58966;SDS011;44744;51.894;5.080;2024-03-06T15:15:46;13.30;;;11.00;;
58966;SDS011;44744;51.894;5.080;2024-03-06T15:20:47;15.60;;;11.10;;
58966;SDS011;44744;51.894;5.080;2024-03-06T15:25:47;14.90;;;11.20;;
58966;SDS011;44744;51.894;5.080;2024-03-06T15:30:48;18.00;;;12.30;;
58966;SDS011;44744;51.894;5.080;2024-03-06T15:35:49;13.80;;;10.60;;
58966;SDS011;44744;51.894;5.080;2024-03-06T15:40:49;14.10;;;10.20;;
58966;SDS011;44744;51.894;5.080;2024-03-06T15:45:50;16.20;;;11.00;;
58966;SDS011;44744;51.894;5.080;2024-03-06T15:50:51;12.80;;;9.70;;
58966;SDS011;44744;51.894;5.080;2024-03-06T15:55:52;9.50;;;6.50;;
58966;SDS011;44744;51.894;5.080;2024-03-06T16:00:53;9.80;;;6.50;;
58966;SDS011;44744;51.894;5.080;2024-03-06T16:05:53;9.80;;;6.50;;
58966;SDS011;44744;51.894;5.080;2024-03-06T16:10:54;14.00;;;7.10;;
58966;SDS011;44744;51.894;5.080;2024-03-06T16:15:55;8.20;;;6.10;;
58966;SDS011;44744;51.894;5.080;2024-03-06T16:20:58;8.30;;;6.50;;
58966;SDS011;44744;51.894;5.080;2024-03-06T16:26:06;12.80;;;7.20;;
58966;SDS011;44744;51.894;5.080;2024-03-06T16:31:16;7.80;;;6.00;;
58966;SDS011;44744;51.894;5.080;2024-03-06T16:41:56;10.00;;;7.10;;
58966;SDS011;44744;51.894;5.080;2024-03-06T16:47:18;10.20;;;6.20;;
58966;SDS011;44744;51.894;5.080;2024-03-06T16:52:27;9.70;;;6.60;;
58966;SDS011;44744;51.894;5.080;2024-03-06T16:57:31;8.80;;;6.70;;
58966;SDS011;44744;51.894;5.080;2024-03-06T17:02:36;7.80;;;6.30;;
58966;SDS011;44744;51.894;5.080;2024-03-06T17:07:44;8.70;;;6.40;;
58966;SDS011;44744;51.894;5.080;2024-03-06T17:34:21;11.00;;;8.60;;
58966;SDS011;44744;51.894;5.080;2024-03-06T17:39:28;10.70;;;7.70;;
58966;SDS011;44744;51.894;5.080;2024-03-06T17:44:33;9.70;;;7.50;;
58966;SDS011;44744;51.894;5.080;2024-03-06T17:49:36;12.70;;;9.30;;
58966;SDS011;44744;51.894;5.080;2024-03-06T17:54:38;14.40;;;9.30;;
58966;SDS011;44744;51.894;5.080;2024-03-06T17:59:40;13.00;;;9.40;;
58966;SDS011;44744;51.894;5.080;2024-03-06T18:04:44;13.80;;;9.90;;
58966;SDS011;44744;51.894;5.080;2024-03-06T18:09:50;13.80;;;10.80;;
58966;SDS011;44744;51.894;5.080;2024-03-06T18:14:56;13.90;;;10.70;;
58966;SDS011;44744;51.894;5.080;2024-03-06T18:20:00;14.90;;;10.60;;
58966;SDS011;44744;51.894;5.080;2024-03-06T18:25:00;16.30;;;12.00;;
58966;SDS011;44744;51.894;5.080;2024-03-06T18:35:06;18.20;;;13.10;;
58966;SDS011;44744;51.894;5.080;2024-03-06T18:40:06;25.10;;;12.90;;
58966;SDS011;44744;51.894;5.080;2024-03-06T18:45:07;19.00;;;13.80;;
58966;SDS011;44744;51.894;5.080;2024-03-06T18:50:09;20.80;;;14.20;;
58966;SDS011;44744;51.894;5.080;2024-03-06T18:55:09;16.90;;;12.60;;
58966;SDS011;44744;51.894;5.080;2024-03-06T19:00:10;19.80;;;13.90;;
58966;SDS011;44744;51.894;5.080;2024-03-06T19:05:11;17.10;;;12.70;;
58966;SDS011;44744;51.894;5.080;2024-03-06T19:10:12;16.10;;;12.10;;
58966;SDS011;44744;51.894;5.080;2024-03-06T19:15:16;18.40;;;12.00;;
58966;SDS011;44744;51.894;5.080;2024-03-06T19:20:16;17.70;;;12.00;;
58966;SDS011;44744;51.894;5.080;2024-03-06T19:25:17;16.50;;;12.10;;
58966;SDS011;44744;51.894;5.080;2024-03-06T19:30:18;18.00;;;11.90;;
58966;SDS011;44744;51.894;5.080;2024-03-06T19:35:19;20.50;;;13.80;;
58966;SDS011;44744;51.894;5.080;2024-03-06T19:40:22;23.60;;;14.70;;
58966;SDS011;44744;51.894;5.080;2024-03-06T19:45:22;23.20;;;15.60;;
58966;SDS011;44744;51.894;5.080;2024-03-06T19:50:23;23.30;;;16.50;;
58966;SDS011;44744;51.894;5.080;2024-03-06T19:55:23;26.20;;;18.00;;
58966;SDS011;44744;51.894;5.080;2024-03-06T20:00:29;26.70;;;19.00;;
58966;SDS011;44744;51.894;5.080;2024-03-06T20:05:30;28.50;;;19.50;;
58966;SDS011;44744;51.894;5.080;2024-03-06T20:10:31;29.60;;;20.20;;
58966;SDS011;44744;51.894;5.080;2024-03-06T20:15:33;28.30;;;20.20;;
58966;SDS011;44744;51.894;5.080;2024-03-06T20:20:34;30.90;;;20.80;;
58966;SDS011;44744;51.894;5.080;2024-03-06T20:25:35;32.00;;;21.00;;
58966;SDS011;44744;51.894;5.080;2024-03-06T20:30:39;34.80;;;23.60;;
58966;SDS011;44744;51.894;5.080;2024-03-06T20:35:45;30.90;;;21.60;;
58966;SDS011;44744;51.894;5.080;2024-03-06T20:40:47;34.50;;;22.20;;
58966;SDS011;44744;51.894;5.080;2024-03-06T20:45:51;31.30;;;21.90;;
58966;SDS011;44744;51.894;5.080;2024-03-06T20:51:00;33.40;;;22.50;;
58966;SDS011;44744;51.894;5.080;2024-03-06T20:56:01;34.90;;;21.80;;
58966;SDS011;44744;51.894;5.080;2024-03-06T21:01:02;29.30;;;20.80;;
58966;SDS011;44744;51.894;5.080;2024-03-06T21:06:02;30.50;;;21.60;;
58966;SDS011;44744;51.894;5.080;2024-03-06T21:11:03;33.60;;;23.10;;
58966;SDS011;44744;51.894;5.080;2024-03-06T21:16:06;38.90;;;22.90;;
58966;SDS011;44744;51.894;5.080;2024-03-06T21:21:07;37.10;;;23.50;;
58966;SDS011;44744;51.894;5.080;2024-03-06T21:26:08;33.70;;;22.80;;
58966;SDS011;44744;51.894;5.080;2024-03-06T21:31:09;32.20;;;22.60;;
58966;SDS011;44744;51.894;5.080;2024-03-06T21:36:09;35.30;;;23.50;;
58966;SDS011;44744;51.894;5.080;2024-03-06T21:41:10;35.70;;;23.10;;
58966;SDS011;44744;51.894;5.080;2024-03-06T21:46:14;33.20;;;23.30;;
58966;SDS011;44744;51.894;5.080;2024-03-06T21:51:14;33.60;;;22.20;;
58966;SDS011;44744;51.894;5.080;2024-03-06T21:56:16;37.10;;;25.40;;
58966;SDS011;44744;51.894;5.080;2024-03-06T22:01:17;33.20;;;22.40;;
58966;SDS011;44744;51.894;5.080;2024-03-06T22:06:20;36.20;;;24.50;;
58966;SDS011;44744;51.894;5.080;2024-03-06T22:11:20;36.80;;;24.90;;
58966;SDS011;44744;51.894;5.080;2024-03-06T22:16:21;37.70;;;24.20;;
58966;SDS011;44744;51.894;5.080;2024-03-06T22:21:22;38.50;;;25.30;;
58966;SDS011;44744;51.894;5.080;2024-03-06T22:26:23;38.40;;;24.40;;
58966;SDS011;44744;51.894;5.080;2024-03-06T22:31:23;32.50;;;22.90;;
58966;SDS011;44744;51.894;5.080;2024-03-06T22:36:26;36.50;;;23.10;;
58966;SDS011;44744;51.894;5.080;2024-03-06T22:41:27;34.80;;;23.90;;
58966;SDS011;44744;51.894;5.080;2024-03-06T22:46:30;34.90;;;22.90;;
58966;SDS011;44744;51.894;5.080;2024-03-06T22:51:30;37.40;;;24.30;;
58966;SDS011;44744;51.894;5.080;2024-03-06T22:56:31;38.30;;;24.00;;
58966;SDS011;44744;51.894;5.080;2024-03-06T23:01:34;34.90;;;24.00;;
58966;SDS011;44744;51.894;5.080;2024-03-06T23:06:34;34.20;;;22.60;;
58966;SDS011;44744;51.894;5.080;2024-03-06T23:11:35;37.30;;;24.00;;
58966;SDS011;44744;51.894;5.080;2024-03-06T23:16:35;35.40;;;25.10;;
58966;SDS011;44744;51.894;5.080;2024-03-06T23:21:36;39.20;;;24.90;;
58966;SDS011;44744;51.894;5.080;2024-03-06T23:26:38;38.50;;;24.70;;
58966;SDS011;44744;51.894;5.080;2024-03-06T23:31:40;39.10;;;25.60;;
58966;SDS011;44744;51.894;5.080;2024-03-06T23:36:40;41.70;;;24.20;;
58966;SDS011;44744;51.894;5.080;2024-03-06T23:41:41;39.60;;;24.60;;
58966;SDS011;44744;51.894;5.080;2024-03-06T23:46:41;38.00;;;25.20;;
58966;SDS011;44744;51.894;5.080;2024-03-06T23:51:44;36.10;;;24.00;;
58966;SDS011;44744;51.894;5.080;2024-03-06T23:56:49;39.40;;;26.00;;
